createdAt,value
2022-10-03T00:01:18.855Z,8.30
2022-10-03T00:04:09.649Z,8.35
2022-10-03T00:07:07.286Z,7.97
2022-10-03T00:10:05.968Z,9.98
2022-10-03T00:15:19.126Z,7.82
2022-10-03T00:17:52.828Z,9.88
2022-10-03T00:20:42.621Z,9.10
2022-10-03T00:23:31.996Z,9.48
2022-10-03T00:26:37.202Z,12.85
2022-10-03T00:29:31.843Z,9.63
2022-10-03T00:32:22.944Z,10.57
2022-10-03T00:38:28.775Z,10.77
2022-10-03T00:41:21.167Z,10.60
2022-10-03T00:44:05.200Z,11.18
2022-10-03T00:46:39.958Z,10.90
2022-10-03T00:49:32.134Z,10.75
2022-10-03T00:52:24.076Z,14.15
2022-10-03T00:55:06.396Z,10.98
2022-10-03T00:58:00.894Z,11.52
2022-10-03T01:00:28.848Z,10.00
2022-10-03T01:03:21.435Z,11.60
2022-10-03T01:06:27.977Z,11.77
2022-10-03T01:12:16.869Z,12.88
2022-10-03T01:15:23.406Z,11.27
2022-10-03T01:20:37.505Z,13.65
2022-10-03T01:23:30.879Z,14.20
2022-10-03T01:26:22.074Z,15.25
2022-10-03T01:29:14.161Z,15.75
2022-10-03T01:31:45.730Z,14.52
2022-10-03T01:34:37.376Z,14.80
2022-10-03T01:37:41.625Z,13.70
2022-10-03T01:40:35.519Z,15.13
2022-10-03T01:43:23.321Z,18.92
2022-10-03T01:48:48.922Z,14.85
2022-10-03T01:51:42.817Z,12.88
2022-10-03T01:54:18.440Z,16.42
2022-10-03T01:56:58.439Z,14.80
2022-10-03T01:59:36.107Z,14.00
2022-10-03T02:02:25.766Z,12.02
2022-10-03T02:05:10.210Z,13.40
2022-10-03T02:08:00.270Z,14.10
2022-10-03T02:10:36.002Z,13.30
2022-10-03T02:13:23.877Z,15.65
2022-10-03T02:15:56.743Z,14.77
2022-10-03T02:18:48.981Z,15.60
2022-10-03T02:21:21.746Z,14.38
2022-10-03T02:26:47.334Z,14.52
2022-10-03T02:29:53.863Z,15.25
2022-10-03T02:35:51.998Z,14.63
2022-10-03T02:38:42.749Z,14.30
2022-10-03T02:44:27.173Z,12.65
2022-10-03T02:47:13.683Z,14.23
2022-10-03T02:49:58.094Z,18.27
2022-10-03T02:53:04.553Z,16.52
2022-10-03T02:56:11.011Z,15.32
2022-10-03T02:59:10.801Z,16.45
2022-10-03T03:02:00.844Z,18.60
2022-10-03T03:07:59.536Z,15.43
2022-10-03T03:10:51.636Z,16.23
2022-10-03T03:13:42.812Z,13.65
2022-10-03T03:16:34.291Z,15.98
2022-10-03T03:19:40.792Z,17.45
2022-10-03T03:22:25.269Z,17.75
2022-10-03T03:25:19.042Z,19.83
2022-10-03T03:28:02.029Z,19.92
2022-10-03T03:30:34.261Z,18.77
2022-10-03T03:33:10.114Z,15.25
2022-10-03T03:38:41.442Z,17.13
2022-10-03T03:41:21.043Z,21.42
2022-10-03T03:44:27.531Z,17.90
2022-10-03T03:47:34.006Z,16.33
2022-10-03T03:50:40.444Z,17.38
2022-10-03T03:53:46.884Z,17.23
2022-10-03T03:56:38.960Z,16.13
2022-10-03T03:59:29.048Z,18.42
2022-10-03T04:02:22.508Z,15.57
2022-10-03T04:05:04.895Z,27.23
2022-10-03T04:07:54.589Z,18.40
2022-10-03T04:10:46.141Z,16.50
2022-10-03T04:13:36.877Z,18.02
2022-10-03T04:19:07.070Z,18.48
2022-10-03T04:21:56.465Z,19.27
2022-10-03T04:24:37.046Z,16.58
2022-10-03T04:27:13.833Z,17.38
2022-10-03T04:30:03.653Z,17.05
2022-10-03T04:33:01.009Z,19.83
2022-10-03T04:36:07.450Z,16.20
2022-10-03T04:38:58.093Z,21.05
2022-10-03T04:41:52.980Z,17.50
2022-10-03T04:44:50.758Z,16.65
2022-10-03T04:47:39.474Z,21.35
2022-10-03T04:53:31.005Z,13.98
2022-10-03T04:56:20.933Z,15.43
2022-10-03T04:59:15.979Z,14.32
2022-10-03T05:04:43.577Z,21.15
2022-10-03T05:07:20.228Z,19.83
2022-10-03T05:10:05.863Z,18.77
2022-10-03T05:12:41.537Z,19.35
2022-10-03T05:21:05.372Z,14.38
2022-10-03T05:23:55.120Z,16.27
2022-10-03T05:26:45.479Z,13.30
2022-10-03T05:29:38.487Z,17.13
2022-10-03T05:32:45.061Z,16.67
2022-10-03T05:35:52.194Z,17.38
2022-10-03T05:38:35.962Z,14.50
2022-10-03T05:41:11.240Z,17.42
2022-10-03T05:46:57.204Z,17.40
2022-10-03T05:50:11.022Z,18.27
2022-10-03T05:53:02.856Z,15.63
2022-10-03T05:55:50.449Z,17.90
2022-10-03T05:58:31.748Z,13.18
2022-10-03T06:01:09.999Z,14.30
2022-10-03T06:04:16.459Z,13.30
2022-10-03T06:07:05.931Z,12.88
2022-10-03T06:10:01.633Z,14.00
2022-10-03T06:12:51.554Z,11.40
2022-10-03T06:15:41.621Z,13.32
2022-10-03T06:18:33.600Z,15.02
2022-10-03T06:21:11.603Z,10.88
2022-10-03T06:26:39.756Z,15.55
2022-10-03T06:29:46.245Z,17.60
2022-10-03T06:32:39.672Z,13.45
2022-10-03T06:35:46.149Z,15.20
2022-10-03T06:38:52.606Z,15.65
2022-10-03T06:41:59.066Z,17.88
2022-10-03T06:45:05.507Z,13.68
2022-10-03T06:48:02.305Z,17.60
2022-10-03T06:50:53.227Z,10.40
2022-10-03T06:53:59.705Z,14.32
2022-10-03T06:57:06.293Z,11.75
2022-10-03T07:05:50.957Z,12.50
2022-10-03T07:08:45.640Z,14.10
2022-10-03T07:11:36.276Z,12.65
2022-10-03T07:14:35.201Z,12.23
2022-10-03T07:17:41.685Z,13.63
2022-10-03T07:20:48.657Z,13.65
2022-10-03T07:23:54.784Z,12.02
2022-10-03T07:29:57.703Z,11.98
2022-10-03T07:32:35.809Z,16.00
2022-10-03T07:36:02.304Z,11.95
2022-10-03T07:44:50.619Z,13.77
2022-10-03T07:50:51.178Z,13.02
2022-10-03T07:53:36.346Z,12.05
2022-10-03T07:56:32.279Z,13.45
2022-10-03T07:59:40.325Z,13.73
2022-10-03T08:02:47.007Z,10.70
2022-10-03T08:05:40.435Z,14.93
2022-10-03T08:14:32.522Z,14.40
2022-10-03T08:17:38.964Z,28.75
2022-10-03T08:20:17.742Z,15.90
2022-10-03T08:23:21.385Z,12.18
2022-10-03T08:26:28.684Z,10.90
2022-10-03T08:32:11.435Z,16.58
2022-10-03T08:35:02.714Z,15.52
2022-10-03T08:40:42.846Z,12.85
2022-10-03T08:43:50.518Z,14.48
2022-10-03T08:47:00.118Z,13.15
2022-10-03T08:49:51.683Z,14.95
2022-10-03T08:52:41.786Z,15.52
2022-10-03T08:55:34.975Z,16.75
2022-10-03T09:01:25.933Z,13.18
2022-10-03T09:04:24.728Z,14.25
2022-10-03T09:07:17.215Z,14.65
2022-10-03T09:13:09.972Z,15.43
2022-10-03T09:16:18.826Z,13.73
2022-10-03T09:19:01.686Z,20.45
2022-10-03T09:21:37.989Z,18.85
2022-10-03T09:24:44.621Z,21.73
2022-10-03T09:27:27.284Z,17.35
2022-10-03T09:30:15.484Z,10.13
2022-10-03T09:39:02.958Z,10.85
2022-10-03T09:42:09.511Z,14.43
2022-10-03T09:45:08.612Z,8.18
2022-10-03T09:48:02.462Z,15.25
2022-10-03T09:50:54.454Z,13.30
2022-10-03T09:53:32.216Z,11.63
2022-10-03T09:59:20.374Z,13.55
2022-10-03T10:02:00.333Z,12.68
2022-10-03T10:04:56.023Z,9.52
2022-10-03T10:07:36.089Z,13.40
2022-10-03T10:10:42.584Z,11.40
2022-10-03T10:13:56.067Z,12.68
2022-10-03T10:16:59.927Z,10.27
2022-10-03T10:19:51.859Z,6.43
2022-10-03T10:22:40.318Z,9.02
2022-10-03T10:28:11.509Z,11.20
2022-10-03T10:31:18.143Z,9.07
2022-10-03T10:34:11.368Z,10.70
2022-10-03T10:40:12.546Z,7.47
2022-10-03T10:43:12.569Z,11.27
2022-10-03T10:49:04.963Z,3.97
2022-10-03T10:52:12.275Z,4.55
2022-10-03T10:55:18.729Z,6.07
2022-10-03T10:58:20.385Z,8.48
2022-10-03T11:01:17.194Z,6.18
2022-10-03T11:04:23.853Z,10.35
2022-10-03T11:07:08.083Z,8.05
2022-10-03T11:09:43.297Z,8.18
2022-10-03T11:12:49.842Z,10.30
2022-10-03T11:15:47.209Z,8.63
2022-10-03T11:18:43.336Z,8.73
2022-10-03T11:21:36.385Z,7.55
2022-10-03T11:24:28.492Z,6.32
2022-10-03T11:27:22.266Z,6.97
2022-10-03T11:30:27.392Z,12.18
2022-10-03T11:33:25.480Z,7.45
2022-10-03T11:39:06.633Z,7.65
2022-10-03T11:42:00.008Z,6.60
2022-10-03T11:44:44.792Z,7.40
2022-10-03T11:50:33.028Z,9.02
2022-10-03T11:53:21.569Z,7.85
2022-10-03T11:55:52.079Z,6.85
2022-10-03T11:58:45.358Z,5.75
2022-10-03T12:01:24.419Z,4.63
2022-10-03T12:04:30.915Z,4.75
2022-10-03T12:07:21.069Z,8.18
2022-10-03T12:09:59.661Z,5.00
2022-10-03T12:12:47.954Z,6.75
2022-10-03T12:15:39.918Z,6.03
2022-10-03T12:21:06.804Z,7.28
2022-10-03T12:26:47.292Z,7.55
2022-10-03T12:29:14.313Z,5.68
2022-10-03T12:31:46.491Z,7.57
2022-10-03T12:34:35.080Z,6.25
2022-10-03T12:37:28.607Z,3.72
2022-10-03T12:40:16.433Z,5.63
2022-10-03T12:46:01.412Z,6.40
2022-10-03T12:49:07.970Z,6.50
2022-10-03T12:51:47.542Z,10.40
2022-10-03T12:54:40.034Z,6.63
2022-10-03T12:57:20.196Z,7.28
2022-10-03T13:00:07.507Z,12.23
2022-10-03T13:02:38.058Z,7.88
2022-10-03T13:05:30.063Z,6.18
2022-10-03T13:10:50.790Z,7.53
2022-10-03T13:16:24.729Z,4.93
2022-10-03T13:18:57.392Z,8.10
2022-10-03T13:21:45.914Z,12.48
2022-10-03T13:27:23.337Z,4.78
2022-10-03T13:29:53.550Z,9.45
2022-10-03T13:32:34.880Z,4.28
2022-10-03T13:35:27.155Z,6.88
2022-10-03T13:38:26.325Z,7.30
2022-10-03T13:41:06.062Z,8.63
2022-10-03T13:43:36.217Z,12.65
2022-10-03T13:46:08.098Z,9.25
2022-10-03T13:48:34.753Z,8.53
2022-10-03T13:51:06.283Z,5.32
2022-10-03T13:54:00.049Z,8.68
2022-10-03T13:56:49.558Z,7.82
2022-10-03T14:02:51.642Z,10.23
2022-10-03T14:05:42.537Z,6.30
2022-10-03T14:08:49.007Z,7.50
2022-10-03T14:11:24.068Z,7.35
2022-10-03T14:14:16.454Z,5.93
2022-10-03T14:16:54.407Z,6.07
2022-10-03T14:19:28.792Z,6.03
2022-10-03T14:25:21.499Z,7.22
2022-10-03T14:27:53.238Z,7.53
2022-10-03T14:30:31.212Z,8.68
2022-10-03T14:33:07.040Z,7.68
2022-10-03T14:35:41.519Z,5.82
2022-10-03T14:38:50.467Z,11.38
2022-10-03T14:41:25.796Z,7.43
2022-10-03T14:43:55.000Z,7.20
2022-10-03T14:46:23.556Z,4.90
2022-10-03T14:48:51.733Z,10.23
2022-10-03T14:51:25.735Z,8.60
2022-10-03T14:53:57.860Z,11.73
2022-10-03T14:56:25.915Z,3.50
2022-10-03T14:58:53.988Z,7.45
2022-10-03T15:01:23.385Z,13.02
2022-10-03T15:04:02.758Z,11.32
2022-10-03T15:06:53.563Z,5.63
2022-10-03T15:09:23.882Z,6.15
2022-10-03T15:11:55.184Z,7.65
2022-10-03T15:14:24.313Z,10.48
2022-10-03T15:16:53.902Z,8.05
2022-10-03T15:19:40.544Z,10.25
2022-10-03T15:25:14.015Z,4.30
2022-10-03T15:27:41.892Z,6.38
2022-10-03T15:30:16.005Z,5.38
2022-10-03T15:32:43.563Z,4.78
2022-10-03T15:35:16.402Z,5.07
2022-10-03T15:40:24.960Z,10.20
2022-10-03T15:43:01.321Z,5.25
2022-10-03T15:45:29.327Z,4.65
2022-10-03T15:47:58.083Z,6.82
2022-10-03T15:50:28.082Z,7.95
2022-10-03T15:53:12.361Z,7.78
2022-10-03T15:55:49.851Z,3.90
2022-10-03T15:58:25.600Z,5.65
2022-10-03T16:01:01.450Z,7.95
2022-10-03T16:03:31.471Z,12.95
2022-10-03T16:09:04.694Z,7.70
2022-10-03T16:12:11.264Z,5.53
2022-10-03T16:14:41.606Z,9.10
2022-10-03T16:17:18.216Z,4.70
2022-10-03T16:19:54.996Z,6.55
2022-10-03T16:22:25.147Z,2.97
2022-10-03T16:25:14.150Z,3.95
2022-10-03T16:27:47.689Z,3.53
2022-10-03T16:30:18.461Z,3.83
2022-10-03T16:33:04.190Z,4.35
2022-10-03T16:35:36.142Z,8.65
2022-10-03T16:38:05.193Z,8.95
2022-10-03T16:40:31.820Z,7.57
2022-10-03T16:42:59.099Z,8.70
2022-10-03T16:45:32.798Z,6.05
2022-10-03T16:48:20.751Z,6.95
2022-10-03T16:50:49.903Z,3.88
2022-10-03T16:53:16.982Z,5.53
2022-10-03T16:55:48.905Z,6.13
2022-10-03T16:58:21.420Z,4.57
2022-10-03T17:04:15.635Z,4.75
2022-10-03T17:06:46.460Z,7.15
2022-10-03T17:09:39.597Z,14.52
2022-10-03T17:14:36.988Z,7.88
2022-10-03T17:17:20.747Z,7.88
2022-10-03T17:19:53.727Z,4.45
2022-10-03T17:22:22.288Z,4.05
2022-10-03T17:24:53.527Z,7.07
2022-10-03T17:27:29.314Z,4.18
2022-10-03T17:30:03.256Z,3.55
2022-10-03T17:32:36.243Z,5.13
2022-10-03T17:35:26.883Z,10.75
2022-10-03T17:38:44.684Z,6.05
2022-10-03T17:41:18.587Z,9.23
2022-10-03T17:46:44.466Z,4.78
2022-10-03T17:49:31.540Z,3.08
2022-10-03T17:51:58.192Z,4.45
2022-10-03T17:54:29.217Z,6.13
2022-10-03T17:57:05.914Z,4.40
2022-10-03T17:59:39.597Z,13.45
2022-10-03T18:02:25.121Z,7.65
2022-10-03T18:04:59.922Z,6.97
2022-10-03T18:07:27.318Z,8.68
2022-10-03T18:09:54.595Z,6.28
2022-10-03T18:12:33.106Z,8.38
2022-10-03T18:15:41.002Z,4.47
2022-10-03T18:18:29.678Z,6.50
2022-10-03T18:21:02.462Z,9.43
2022-10-03T18:26:28.375Z,6.80
2022-10-03T18:29:33.905Z,10.55
2022-10-03T18:32:22.448Z,7.43
2022-10-03T18:34:52.813Z,14.82
2022-10-03T18:40:04.100Z,13.57
2022-10-03T18:42:30.817Z,9.65
2022-10-03T18:44:58.256Z,8.30
2022-10-03T18:47:30.005Z,8.50
2022-10-03T18:50:15.352Z,8.52
2022-10-03T18:52:52.490Z,10.05
2022-10-03T18:55:40.617Z,7.50
2022-10-03T18:58:29.572Z,10.25
2022-10-03T19:01:18.209Z,7.63
2022-10-03T19:03:59.085Z,10.18
2022-10-03T19:06:28.619Z,8.18
2022-10-03T19:08:59.842Z,11.77
2022-10-03T19:12:06.167Z,7.72
2022-10-03T19:14:49.766Z,7.38
2022-10-03T19:17:56.249Z,10.50
2022-10-03T19:20:27.309Z,20.77
2022-10-03T19:22:59.624Z,11.65
2022-10-03T19:25:26.270Z,11.73
2022-10-03T19:27:57.849Z,7.75
2022-10-03T19:30:25.758Z,10.95
2022-10-03T19:32:57.665Z,15.63
2022-10-03T19:35:24.450Z,24.67
2022-10-03T19:37:56.314Z,18.05
2022-10-03T19:41:02.824Z,16.57
2022-10-03T19:43:42.978Z,18.40
2022-10-03T19:46:37.529Z,15.75
2022-10-03T19:49:37.403Z,22.02
2022-10-03T19:52:17.889Z,23.15
2022-10-03T19:55:24.884Z,17.73
2022-10-03T19:57:54.401Z,23.38
2022-10-03T20:00:23.984Z,33.63
2022-10-03T20:05:44.556Z,64.00
2022-10-03T20:08:21.303Z,37.90
2022-10-03T20:13:43.824Z,45.08
2022-10-03T20:16:15.410Z,35.10
2022-10-03T20:18:42.048Z,37.47
2022-10-03T20:21:10.585Z,50.42
2022-10-03T20:23:40.714Z,39.35
2022-10-03T20:26:31.972Z,41.15
2022-10-03T20:29:20.104Z,43.17
2022-10-03T20:31:47.111Z,31.58
2022-10-03T20:34:16.434Z,41.38
2022-10-03T20:36:46.595Z,49.13
2022-10-03T20:39:21.973Z,75.38
2022-10-03T20:42:12.546Z,73.07
2022-10-03T20:45:02.645Z,66.22
2022-10-03T20:47:58.986Z,50.15
2022-10-03T20:50:37.236Z,69.13
2022-10-03T20:53:10.932Z,44.50
2022-10-03T20:55:44.172Z,45.38
2022-10-03T20:58:16.228Z,38.85
2022-10-03T21:00:46.853Z,29.77
2022-10-03T21:03:35.810Z,22.90
2022-10-03T21:06:02.474Z,31.63
2022-10-03T21:08:37.909Z,26.10
2022-10-03T21:14:18.164Z,34.03
2022-10-03T21:16:46.852Z,47.90
2022-10-03T21:19:21.991Z,35.78
2022-10-03T21:21:51.708Z,36.97
2022-10-03T21:24:43.523Z,34.80
2022-10-03T21:27:14.155Z,25.98
2022-10-03T21:29:52.106Z,18.73
2022-10-03T21:35:26.589Z,22.70
2022-10-03T21:38:24.292Z,17.95
2022-10-03T21:46:21.073Z,14.00
2022-10-03T21:49:27.609Z,16.17
2022-10-03T21:52:18.995Z,14.55
2022-10-03T21:57:57.211Z,16.45
2022-10-03T22:00:27.220Z,14.80
2022-10-03T22:03:19.816Z,13.98
2022-10-03T22:06:17.279Z,18.90
2022-10-03T22:08:44.355Z,19.10
2022-10-03T22:11:34.877Z,18.35
2022-10-03T22:14:25.045Z,16.77
2022-10-03T22:17:00.401Z,14.65
2022-10-03T22:19:47.692Z,14.68
2022-10-03T22:22:26.650Z,15.38
2022-10-03T22:25:33.201Z,15.60
2022-10-03T22:28:07.831Z,13.63
2022-10-03T22:30:36.617Z,17.20
2022-10-03T22:33:26.281Z,15.38
2022-10-03T22:35:54.730Z,21.20
2022-10-03T22:38:24.917Z,13.30
2022-10-03T22:40:51.611Z,17.92
2022-10-03T22:43:18.443Z,14.32
2022-10-03T22:45:46.935Z,14.77
2022-10-03T22:48:16.594Z,12.18
2022-10-03T22:50:43.290Z,14.85
2022-10-03T22:53:11.729Z,13.60
2022-10-03T22:55:38.364Z,13.10
2022-10-03T22:58:05.885Z,11.80
2022-10-03T23:00:35.467Z,12.00
2022-10-03T23:03:09.927Z,11.95
2022-10-03T23:06:16.501Z,10.60
2022-10-03T23:11:28.263Z,19.90
2022-10-03T23:13:57.737Z,19.88
2022-10-03T23:16:49.336Z,17.75
2022-10-03T23:22:19.632Z,20.77
2022-10-03T23:24:50.771Z,15.35
2022-10-03T23:27:57.578Z,15.00
2022-10-03T23:33:00.803Z,15.73
2022-10-03T23:35:35.761Z,13.55
2022-10-03T23:38:02.385Z,12.80
2022-10-03T23:40:35.757Z,16.08
2022-10-03T23:43:25.314Z,11.73
2022-10-03T23:45:53.575Z,10.65
2022-10-03T23:48:23.181Z,11.23
2022-10-03T23:51:07.344Z,11.82
2022-10-03T23:53:43.908Z,11.32
